Franksville, WI

8:43 AM CDT on August 30, 2016 (GMT -0500)
K and U | | Change Station

Elev 720 ft 42.79 °N, 88.02 °W | Updated 11 minutes ago

Clear
Clear
82.2 °F
Feels Like 88 °F
N
2.7
Wind Variable Wind from SSW

Today
High -- | Low -- °F
--% Chance of Precip.
Yesterday
High -- | Low -- °F
Precip. -- in
Pressure 30.14 in
Visibility 9.0 miles
Clouds Clear
Heat Index 88 °F
Dew Point 73 °F
Humidity 74%
Rainfall 0.00 in
Snow Depth Not available.
6:14 AM 7:28 PM
Waning Crescent, 3% visible
METAR KRAC 301253Z AUTO 20003KT 9SM CLR 23/21 A3016 RMK AO2 SLP207 T02280206
Pressure 30.14 in
Visibility 9.0 miles
Clouds Clear
Heat Index 88 °F
Dew Point 73 °F
Humidity 74%
Rainfall 0.00 in
Snow Depth Not available.
6:14 AM 7:28 PM
Waning Crescent, 3% visible
METAR KRAC 301253Z AUTO 20003KT 9SM CLR 23/21 A3016 RMK AO2 SLP207 T02280206

10-Day Weather Forecast

Almanac

Astronomy

Aug. 30, 2016 Rise Set
Actual Time
Civil Twilight
Nautical Twilight
Astronomical Twilight
Moon
Length of Visible Light
Length of Day
Tomorrow will be .
, % of the Moon is Illuminated

Today's Extremes

State Highs State Lows

Community

WunderPhotos

Upload Photos

1,935,833 photos uploaded!

WunderBlog® & News

Nearby

Air Quality

  Air Quality AQ Index Pollutant
Not available.

Snow Depth

Station Depth Elevation

Earthquake Activity

City Distance Mag. Time & Date
Minimum magnitude displayed is 2.5.

Coastal Water Temperatures

Place Temperature

Stations

Nearby Weather Stations

Station Location Temp. Windchill Dew Point Humidity Wind Precip. Elev Updated Type
                   

Watches & Warnings

There are currently no watches in effect.